Time;durP1;ratioP1;P1;durP2;ratioP2;P2;SDS_P1;SDS_P2;PMS_P1;PMS_P2;Temp;Humidity;BMP_temperature;BMP_pressure;BME280_temperature;BME280_humidity;BME280_pressure;Samples;Min_cycle;Max_cycle;Signal;HPM_P1;HPM_P2
2022/08/11 00:02:15;;;;;;;;;;;27.00;96.00;;;;;;5077140;28;19923;-55
2022/08/11 00:04:42;;;;;;;;;;;27.00;96.10;;;;;;5107334;28;19908;-50
2022/08/11 00:07:09;;;;;;;;;;;27.00;96.10;;;;;;5076885;28;19987;-55
2022/08/11 00:09:38;;;;;;;;;;;27.00;96.10;;;;;;5112366;28;20255;-54
2022/08/11 00:12:11;;;;;;;;;;;27.00;96.10;;;;;;5112918;28;19907;-50
2022/08/11 00:14:38;;;;;;;;;;;27.00;96.20;;;;;;5100148;28;20143;-53
2022/08/11 00:17:05;;;;;;;;;;;26.90;96.10;;;;;;5076208;28;19908;-52
2022/08/11 00:19:37;;;;;;;;;;;27.00;96.20;;;;;;5074397;28;19905;-50
2022/08/11 00:22:05;;;;;;;;;;;27.00;96.20;;;;;;5090936;28;20379;-52
2022/08/11 00:24:37;;;;;;;;;;;27.00;96.20;;;;;;5092822;28;20272;-51
2022/08/11 00:27:03;;;;;;;;;;;27.00;96.10;;;;;;5109514;28;19961;-54
2022/08/11 00:29:31;;;;;;;;;;;26.90;96.10;;;;;;5112900;28;19974;-51
2022/08/11 00:32:04;;;;;;;;;;;26.90;96.10;;;;;;5105102;28;20292;-53
2022/08/11 00:34:35;;;;;;;;;;;26.90;96.10;;;;;;5078667;28;19939;-58
2022/08/11 00:37:06;;;;;;;;;;;26.90;96.10;;;;;;5080683;28;19979;-53
2022/08/11 00:39:33;;;;;;;;;;;26.90;96.20;;;;;;5094846;28;19946;-62
2022/08/11 00:42:06;;;;;;;;;;;26.90;96.30;;;;;;5096361;28;19904;-53
2022/08/11 00:44:39;;;;;;;;;;;26.90;96.30;;;;;;5100997;28;19920;-51
2022/08/11 00:47:06;;;;;;;;;;;26.90;96.30;;;;;;5098865;28;20177;-52
2022/08/11 00:49:57;;;;;;;;;;;26.90;96.40;;;;;;5102960;28;19911;-57
2022/08/11 00:52:39;;;;;;;;;;;26.90;96.40;;;;;;5106508;28;19904;-53
2022/08/11 00:55:16;;;;;;;;;;;26.90;96.40;;;;;;5098588;28;19943;-50
2022/08/11 00:58:01;;;;;;;;;;;26.90;96.30;;;;;;5080931;28;19908;-51
2022/08/11 01:00:34;;;;;;;;;;;26.90;96.30;;;;;;5101387;28;19935;-51
2022/08/11 01:03:07;;;;;;;;;;;26.90;96.30;;;;;;5096496;28;19986;-55
2022/08/11 01:05:49;;;;;;;;;;;26.90;96.40;;;;;;5101116;28;19912;-51
2022/08/11 01:08:24;;;;;;;;;;;26.90;96.40;;;;;;5096688;28;20066;-50
2022/08/11 01:11:01;;;;;;;;;;;26.90;96.50;;;;;;5096399;28;19948;-54
2022/08/11 01:13:46;;;;;;;;;;;26.90;96.40;;;;;;5099630;28;19939;-51
2022/08/11 01:16:13;;;;;;;;;;;26.90;96.40;;;;;;5106529;28;19908;-50
2022/08/11 01:18:58;;;;;;;;;;;26.90;96.40;;;;;;5105930;28;19911;-51
2022/08/11 01:22:00;;;;;;;;;;;26.80;96.50;;;;;;5106708;28;19961;-56
2022/08/11 01:24:47;;;;;;;;;;;26.80;96.50;;;;;;5043375;28;19963;-50
2022/08/11 01:27:42;;;;;;;;;;;26.90;96.50;;;;;;5098840;28;20206;-50
2022/08/11 01:30:27;;;;;;;;;;;26.80;96.80;;;;;;5106281;28;19900;-53
2022/08/11 01:32:56;;;;;;;;;;;26.80;96.50;;;;;;5106121;28;19904;-50
2022/08/11 01:35:38;;;;;;;;;;;26.80;96.50;;;;;;5106339;28;19935;-51
2022/08/11 01:38:23;;;;;;;;;;;26.80;96.50;;;;;;5106211;28;19911;-54
2022/08/11 01:41:09;;;;;;;;;;;26.80;96.50;;;;;;5106004;28;19949;-51
2022/08/11 01:46:41;;;;;;;;;;;26.70;96.50;;;;;;5106031;28;19915;-50
2022/08/11 01:49:19;;;;;;;;;;;26.80;96.50;;;;;;5105938;28;19904;-51
2022/08/11 01:51:52;;;;;;;;;;;26.70;96.40;;;;;;5106356;28;19971;-50
2022/08/11 01:54:27;;;;;;;;;;;26.80;96.30;;;;;;5087587;28;19958;-49
2022/08/11 01:57:19;;;;;;;;;;;26.70;96.10;;;;;;5106264;28;19970;-51
2022/08/11 02:00:03;;;;;;;;;;;26.70;95.90;;;;;;5105559;28;19911;-47
2022/08/11 02:02:46;;;;;;;;;;;26.70;95.90;;;;;;5102216;28;19945;-51
2022/08/11 02:05:21;;;;;;;;;;;26.70;95.90;;;;;;5086117;28;19908;-50
2022/08/11 02:08:08;;;;;;;;;;;26.60;95.70;;;;;;5079078;28;19908;-52
2022/08/11 02:13:37;;;;;;;;;;;26.60;95.80;;;;;;5075127;28;19933;-50
2022/08/11 02:16:21;;;;;;;;;;;26.60;95.80;;;;;;5100786;28;19915;-54
2022/08/11 02:24:57;;;;;;;;;;;26.60;95.70;;;;;;5096764;28;19950;-47
2022/08/11 02:27:30;;;;;;;;;;;26.60;95.80;;;;;;5050429;28;20002;-47
2022/08/11 02:30:07;;;;;;;;;;;26.60;95.80;;;;;;5085098;28;19934;-51
2022/08/11 02:35:41;;;;;;;;;;;26.60;95.80;;;;;;5084668;28;19974;-51
2022/08/11 02:38:18;;;;;;;;;;;26.70;95.70;;;;;;5084983;28;20128;-49
2022/08/11 02:40:52;;;;;;;;;;;26.70;95.70;;;;;;5084663;28;19979;-48
2022/08/11 02:43:32;;;;;;;;;;;26.60;95.70;;;;;;5084481;28;20164;-47
2022/08/11 02:45:59;;;;;;;;;;;26.60;95.70;;;;;;5102129;28;19904;-54
2022/08/11 02:51:25;;;;;;;;;;;26.70;95.60;;;;;;5093635;28;19950;-52
2022/08/11 02:54:06;;;;;;;;;;;26.70;95.60;;;;;;5084305;28;20185;-46
2022/08/11 02:56:36;;;;;;;;;;;26.70;95.60;;;;;;5084658;28;19915;-50
2022/08/11 03:02:24;;;;;;;;;;;26.70;95.50;;;;;;5096672;28;19915;-48
2022/08/11 03:04:59;;;;;;;;;;;26.70;95.50;;;;;;5057927;28;19908;-47
2022/08/11 03:07:34;;;;;;;;;;;26.60;95.50;;;;;;5105121;28;19904;-50
2022/08/11 03:10:17;;;;;;;;;;;26.60;95.50;;;;;;5104912;28;20242;-47
2022/08/11 03:18:39;;;;;;;;;;;26.60;95.40;;;;;;5104581;28;20017;-49
2022/08/11 03:21:14;;;;;;;;;;;26.60;95.40;;;;;;5102051;28;19910;-53
2022/08/11 03:23:49;;;;;;;;;;;26.60;95.40;;;;;;5095340;28;20041;-50
2022/08/11 03:26:15;;;;;;;;;;;26.60;95.60;;;;;;5093240;28;19904;-47
2022/08/11 03:28:52;;;;;;;;;;;26.60;95.60;;;;;;5084382;28;19905;-51
2022/08/11 03:31:48;;;;;;;;;;;26.60;95.70;;;;;;5084249;28;20272;-48
2022/08/11 03:34:24;;;;;;;;;;;26.60;95.70;;;;;;4994550;28;20150;-48
2022/08/11 03:36:51;;;;;;;;;;;26.60;95.70;;;;;;5084479;28;19904;-49
2022/08/11 03:39:17;;;;;;;;;;;26.60;95.80;;;;;;5084029;28;19905;-49
2022/08/11 03:41:52;;;;;;;;;;;26.60;95.80;;;;;;5084319;28;19927;-50
2022/08/11 03:44:18;;;;;;;;;;;26.60;95.80;;;;;;5084068;28;19912;-53
2022/08/11 03:46:47;;;;;;;;;;;26.60;95.80;;;;;;5098713;28;20174;-51
2022/08/11 03:49:31;;;;;;;;;;;26.60;95.80;;;;;;5100179;28;19908;-46
2022/08/11 03:51:58;;;;;;;;;;;26.60;95.80;;;;;;5095498;28;20105;-50
2022/08/11 03:54:36;;;;;;;;;;;26.60;95.80;;;;;;5103948;28;19962;-47
2022/08/11 03:57:20;;;;;;;;;;;26.60;95.90;;;;;;5104639;28;19903;-48
2022/08/11 04:00:07;;;;;;;;;;;26.60;95.90;;;;;;5098002;28;20176;-47
2022/08/11 04:02:46;;;;;;;;;;;26.60;95.90;;;;;;5088598;28;19943;-48
2022/08/11 04:05:26;;;;;;;;;;;26.60;95.90;;;;;;5101110;28;20112;-46
2022/08/11 04:08:10;;;;;;;;;;;26.60;95.90;;;;;;5108106;28;19915;-51
2022/08/11 04:10:39;;;;;;;;;;;26.60;95.90;;;;;;5108083;28;19949;-53
2022/08/11 04:13:25;;;;;;;;;;;26.60;96.00;;;;;;5107815;28;19904;-49
2022/08/11 04:16:01;;;;;;;;;;;26.60;96.00;;;;;;5108053;28;19912;-51
2022/08/11 04:18:46;;;;;;;;;;;26.60;96.00;;;;;;5107782;28;19911;-46
2022/08/11 04:21:18;;;;;;;;;;;26.60;95.90;;;;;;5107973;28;19911;-44
2022/08/11 04:24:02;;;;;;;;;;;26.60;96.00;;;;;;5107655;28;19912;-48
2022/08/11 04:26:47;;;;;;;;;;;26.60;95.90;;;;;;5107791;28;20185;-47
2022/08/11 04:29:33;;;;;;;;;;;26.60;96.00;;;;;;5106494;28;19908;-49
2022/08/11 04:32:14;;;;;;;;;;;26.60;96.00;;;;;;5107661;28;20110;-50
2022/08/11 04:34:41;;;;;;;;;;;26.50;95.90;;;;;;5107280;28;19904;-49
2022/08/11 04:40:11;;;;;;;;;;;26.50;95.90;;;;;;5107403;28;19961;-45
2022/08/11 04:45:59;;;;;;;;;;;26.60;95.90;;;;;;5107422;28;19911;-46
2022/08/11 05:02:59;;;;;;;;;;;26.50;96.00;;;;;;5106864;28;19915;-45
2022/08/11 05:05:31;;;;;;;;;;;26.50;96.00;;;;;;5106719;28;19908;-46
2022/08/11 05:08:04;;;;;;;;;;;26.50;96.00;;;;;;5106748;28;19908;-51
2022/08/11 05:10:49;;;;;;;;;;;26.50;96.00;;;;;;5106893;28;19904;-47
2022/08/11 05:35:44;;;;;;;;;;;26.40;95.70;;;;;;5086064;28;19980;-46
2022/08/11 05:57:48;;;;;;;;;;;26.40;95.80;;;;;;5105958;28;19919;-48
2022/08/11 06:00:15;;;;;;;;;;;26.30;95.80;;;;;;5105063;28;19953;-49
2022/08/11 06:02:47;;;;;;;;;;;26.30;95.80;;;;;;5106056;28;19993;-50
2022/08/11 06:05:13;;;;;;;;;;;26.30;95.80;;;;;;5105806;28;19924;-52
2022/08/11 06:07:40;;;;;;;;;;;26.40;95.90;;;;;;5105804;28;19920;-48
2022/08/11 06:10:06;;;;;;;;;;;26.30;95.90;;;;;;5105652;28;19904;-54
2022/08/11 06:12:36;;;;;;;;;;;26.30;95.90;;;;;;5105680;28;19947;-50
2022/08/11 06:15:04;;;;;;;;;;;26.30;95.90;;;;;;5105677;28;19914;-48
2022/08/11 06:17:31;;;;;;;;;;;26.30;95.90;;;;;;5105934;28;19916;-50
2022/08/11 06:20:03;;;;;;;;;;;26.30;96.00;;;;;;5105417;28;20198;-52
2022/08/11 06:22:30;;;;;;;;;;;26.30;96.00;;;;;;5105941;28;19908;-52
2022/08/11 06:25:00;;;;;;;;;;;26.30;96.00;;;;;;5105290;28;19919;-54
2022/08/11 06:27:28;;;;;;;;;;;26.30;96.20;;;;;;5105875;28;19912;-47
2022/08/11 06:29:55;;;;;;;;;;;26.30;95.90;;;;;;5105029;28;19912;-51
2022/08/11 06:32:35;;;;;;;;;;;26.30;96.00;;;;;;5105580;28;19962;-52
2022/08/11 06:35:18;;;;;;;;;;;26.30;96.00;;;;;;5105359;28;19912;-47
2022/08/11 06:38:03;;;;;;;;;;;26.40;96.00;;;;;;5105003;28;20153;-54
2022/08/11 06:40:41;;;;;;;;;;;26.30;96.00;;;;;;5105176;28;19915;-51
2022/08/11 06:43:17;;;;;;;;;;;26.30;96.10;;;;;;5105129;28;19920;-52
2022/08/11 06:46:05;;;;;;;;;;;26.30;96.10;;;;;;5105275;28;20188;-51
2022/08/11 06:48:32;;;;;;;;;;;26.30;96.10;;;;;;5105143;28;19943;-52
2022/08/11 06:51:13;;;;;;;;;;;26.30;96.10;;;;;;5105090;28;19927;-53
2022/08/11 06:53:43;;;;;;;;;;;26.30;96.10;;;;;;5105042;28;19936;-50
2022/08/11 07:01:48;;;;;;;;;;;26.30;96.10;;;;;;5105144;28;20215;-50
2022/08/11 07:04:22;;;;;;;;;;;26.30;96.10;;;;;;5104777;28;19923;-52
2022/08/11 07:15:47;;;;;;;;;;;26.20;96.00;;;;;;5104878;28;19915;-47
2022/08/11 07:29:31;;;;;;;;;;;26.20;96.00;;;;;;5104502;28;20104;-50
2022/08/11 07:32:02;;;;;;;;;;;26.20;96.00;;;;;;5104969;28;19912;-51
2022/08/11 07:34:28;;;;;;;;;;;26.20;96.00;;;;;;5104279;28;19920;-50
2022/08/11 07:36:56;;;;;;;;;;;26.20;96.00;;;;;;5104718;28;19915;-52
2022/08/11 07:39:24;;;;;;;;;;;26.20;96.00;;;;;;5103997;28;19912;-53
2022/08/11 07:41:51;;;;;;;;;;;26.20;96.00;;;;;;5107704;28;19912;-56
2022/08/11 07:44:18;;;;;;;;;;;26.20;96.00;;;;;;5108653;28;20104;-50
2022/08/11 07:52:29;;;;;;;;;;;26.20;96.10;;;;;;5108840;28;19915;-50
2022/08/11 07:54:59;;;;;;;;;;;26.20;96.10;;;;;;5108482;28;20107;-53
2022/08/11 08:19:24;;;;;;;;;;;26.20;96.10;;;;;;5107903;28;19958;-48
2022/08/11 08:21:51;;;;;;;;;;;26.10;96.10;;;;;;5108030;28;19908;-49
2022/08/11 08:24:21;;;;;;;;;;;26.10;96.10;;;;;;5108170;28;20302;-52
2022/08/11 08:27:00;;;;;;;;;;;26.10;96.10;;;;;;5108235;28;19908;-54
2022/08/11 08:32:12;;;;;;;;;;;26.10;96.10;;;;;;5108110;28;20207;-47
2022/08/11 08:34:39;;;;;;;;;;;26.10;96.10;;;;;;5107370;28;19944;-53
2022/08/11 08:37:06;;;;;;;;;;;26.10;96.20;;;;;;5107863;28;19915;-49
2022/08/11 08:39:33;;;;;;;;;;;26.10;96.40;;;;;;5107759;28;20103;-50
2022/08/11 08:42:01;;;;;;;;;;;26.10;96.20;;;;;;5107573;28;20129;-49
2022/08/11 08:44:30;;;;;;;;;;;26.10;96.20;;;;;;5107207;28;19947;-48
2022/08/11 08:46:58;;;;;;;;;;;26.10;96.10;;;;;;5107641;28;19905;-47
2022/08/11 08:49:29;;;;;;;;;;;26.10;96.20;;;;;;5107798;28;20113;-48
2022/08/11 08:51:57;;;;;;;;;;;26.10;96.20;;;;;;5107511;28;19908;-52
2022/08/11 08:54:40;;;;;;;;;;;26.10;96.20;;;;;;5106949;28;19924;-46
2022/08/11 08:57:07;;;;;;;;;;;26.10;96.20;;;;;;5107632;28;19915;-48
2022/08/11 08:59:36;;;;;;;;;;;26.10;96.20;;;;;;5107289;28;19912;-45
2022/08/11 09:02:06;;;;;;;;;;;26.10;96.20;;;;;;5107544;28;19919;-49
2022/08/11 09:04:33;;;;;;;;;;;26.10;96.20;;;;;;5106811;28;19916;-48
2022/08/11 09:07:08;;;;;;;;;;;26.00;96.20;;;;;;5107593;28;20184;-51
2022/08/11 09:09:34;;;;;;;;;;;26.00;96.20;;;;;;5106834;28;19951;-48
2022/08/11 09:12:03;;;;;;;;;;;26.00;96.20;;;;;;5107398;28;19904;-50
2022/08/11 09:17:22;;;;;;;;;;;26.10;96.20;;;;;;5107594;28;20152;-49
2022/08/11 09:19:57;;;;;;;;;;;26.00;96.10;;;;;;5106947;28;19948;-47
2022/08/11 09:27:55;;;;;;;;;;;26.00;96.10;;;;;;5107007;28;19919;-50
2022/08/11 09:30:25;;;;;;;;;;;25.90;96.10;;;;;;5106313;28;19943;-47
2022/08/11 09:32:59;;;;;;;;;;;26.00;96.10;;;;;;5106567;28;19950;-45
2022/08/11 09:35:26;;;;;;;;;;;26.00;96.10;;;;;;5106104;28;19911;-45
2022/08/11 09:40:38;;;;;;;;;;;26.00;96.10;;;;;;5106320;28;19915;-50
2022/08/11 09:45:54;;;;;;;;;;;25.90;96.10;;;;;;5106347;28;19971;-50
2022/08/11 09:48:22;;;;;;;;;;;25.90;96.10;;;;;;5106432;28;19920;-48
2022/08/11 09:50:49;;;;;;;;;;;26.00;96.10;;;;;;5106461;28;19915;-48
2022/08/11 09:53:16;;;;;;;;;;;25.90;96.10;;;;;;5105812;28;19913;-50
2022/08/11 09:55:45;;;;;;;;;;;25.90;96.10;;;;;;5106004;28;19959;-51
2022/08/11 09:58:12;;;;;;;;;;;25.90;96.10;;;;;;5105962;28;19919;-49
2022/08/11 10:00:39;;;;;;;;;;;25.90;96.00;;;;;;5105732;28;19915;-50
2022/08/11 10:03:20;;;;;;;;;;;25.90;96.10;;;;;;5105678;28;19996;-45
2022/08/11 10:08:35;;;;;;;;;;;25.90;96.10;;;;;;5105782;28;19919;-53
2022/08/11 10:11:01;;;;;;;;;;;25.90;96.10;;;;;;5105893;28;19949;-54
2022/08/11 10:13:33;;;;;;;;;;;25.90;96.00;;;;;;5105442;28;20215;-51
2022/08/11 10:16:01;;;;;;;;;;;25.90;96.00;;;;;;5105653;28;20180;-48
2022/08/11 10:18:41;;;;;;;;;;;25.90;96.00;;;;;;5105554;28;19919;-55
2022/08/11 10:21:12;;;;;;;;;;;25.90;96.00;;;;;;5105824;28;19904;-50
2022/08/11 10:34:40;;;;;;;;;;;25.90;95.90;;;;;;5105189;28;19931;-53
2022/08/11 10:37:06;;;;;;;;;;;25.90;95.90;;;;;;5105618;28;19908;-48
2022/08/11 10:39:33;;;;;;;;;;;25.80;95.80;;;;;;5105034;28;19919;-53
2022/08/11 10:44:47;;;;;;;;;;;25.90;95.90;;;;;;5105043;28;19923;-48
2022/08/11 11:00:59;;;;;;;;;;;25.80;96.00;;;;;;5104973;28;19915;-50
2022/08/11 11:03:26;;;;;;;;;;;25.80;95.90;;;;;;5104541;28;19908;-53
2022/08/11 11:05:55;;;;;;;;;;;25.80;96.00;;;;;;5104765;28;19908;-50
2022/08/11 11:11:11;;;;;;;;;;;25.80;96.10;;;;;;5104585;28;19911;-55
2022/08/11 11:19:08;;;;;;;;;;;25.80;96.10;;;;;;5104685;28;19919;-50
2022/08/11 11:21:36;;;;;;;;;;;25.80;96.10;;;;;;5104087;28;19904;-51
2022/08/11 11:24:36;;;;;;;;;;;25.80;96.10;;;;;;5104592;28;20231;-52
2022/08/11 11:27:05;;;;;;;;;;;25.90;96.10;;;;;;5065105;28;20103;-51
2022/08/11 11:29:43;;;;;;;;;;;25.90;96.10;;;;;;5102614;28;19912;-50
2022/08/11 11:32:09;;;;;;;;;;;26.00;96.00;;;;;;5103152;28;19910;-52
2022/08/11 11:34:50;;;;;;;;;;;26.00;96.00;;;;;;5102527;28;19912;-51
2022/08/11 11:37:18;;;;;;;;;;;26.00;96.10;;;;;;5103086;28;19915;-54
2022/08/11 11:39:44;;;;;;;;;;;26.10;96.00;;;;;;5101600;28;19942;-53
2022/08/11 11:42:11;;;;;;;;;;;26.30;95.80;;;;;;5102980;28;19915;-55
2022/08/11 11:44:38;;;;;;;;;;;26.60;95.30;;;;;;5104364;28;19912;-54
2022/08/11 11:47:05;;;;;;;;;;;26.50;95.40;;;;;;5104842;28;19908;-52
2022/08/11 11:49:32;;;;;;;;;;;26.90;94.90;;;;;;5104347;28;19908;-52
2022/08/11 11:51:59;;;;;;;;;;;27.10;94.50;;;;;;5104566;28;19961;-49
2022/08/11 11:54:30;;;;;;;;;;;27.00;94.40;;;;;;5103972;28;19924;-53
2022/08/11 11:56:57;;;;;;;;;;;26.80;94.70;;;;;;5104772;28;20030;-47
2022/08/11 12:02:12;;;;;;;;;;;26.50;95.30;;;;;;5104562;28;19931;-50
2022/08/11 12:04:44;;;;;;;;;;;26.50;95.50;;;;;;5103143;28;20116;-53
2022/08/11 12:09:57;;;;;;;;;;;26.40;95.60;;;;;;5103851;28;19970;-51
2022/08/11 12:15:09;;;;;;;;;;;26.30;95.80;;;;;;5104412;28;19989;-52
2022/08/11 12:17:35;;;;;;;;;;;26.30;95.90;;;;;;5103905;28;19912;-46
2022/08/11 12:20:02;;;;;;;;;;;26.30;96.00;;;;;;5104114;28;19904;-45
2022/08/11 12:27:57;;;;;;;;;;;26.20;96.10;;;;;;5105977;28;19981;-49
2022/08/11 12:30:24;;;;;;;;;;;26.20;96.20;;;;;;5107392;28;19975;-47
2022/08/11 12:32:50;;;;;;;;;;;26.20;96.20;;;;;;5108042;28;19939;-49
2022/08/11 12:35:17;;;;;;;;;;;26.20;96.20;;;;;;5106554;28;19915;-49
2022/08/11 12:37:51;;;;;;;;;;;26.20;96.20;;;;;;5107248;28;19913;-47
2022/08/11 12:45:58;;;;;;;;;;;26.20;96.40;;;;;;5106554;28;19919;-49
2022/08/11 12:54:18;;;;;;;;;;;26.20;96.30;;;;;;5107147;28;19926;-49
2022/08/11 13:05:04;;;;;;;;;;;26.20;96.10;;;;;;5106713;28;19958;-57
2022/08/11 13:07:34;;;;;;;;;;;26.30;96.10;;;;;;5107336;28;20147;-52
2022/08/11 13:10:02;;;;;;;;;;;26.30;96.10;;;;;;5106728;28;19908;-53
2022/08/11 13:12:47;;;;;;;;;;;26.30;96.10;;;;;;5107587;28;19982;-53
2022/08/11 13:15:15;;;;;;;;;;;26.30;96.10;;;;;;5107044;28;19908;-53
2022/08/11 13:17:41;;;;;;;;;;;26.40;96.10;;;;;;5105759;28;20085;-52
2022/08/11 13:20:08;;;;;;;;;;;26.50;96.10;;;;;;5105739;28;20157;-48
2022/08/11 13:22:35;;;;;;;;;;;26.50;96.00;;;;;;5106829;28;20223;-49
2022/08/11 13:25:03;;;;;;;;;;;26.50;96.10;;;;;;5106355;28;19967;-55
2022/08/11 13:27:30;;;;;;;;;;;26.60;96.20;;;;;;5107069;28;20122;-48
2022/08/11 13:32:41;;;;;;;;;;;26.60;96.20;;;;;;5106579;28;20300;-45
2022/08/11 13:35:08;;;;;;;;;;;26.70;96.20;;;;;;5106553;28;19930;-50
2022/08/11 13:37:35;;;;;;;;;;;26.70;96.20;;;;;;5105883;28;19912;-50
2022/08/11 13:40:01;;;;;;;;;;;26.70;96.10;;;;;;5105638;28;20247;-48
2022/08/11 13:42:27;;;;;;;;;;;26.80;96.10;;;;;;5106721;28;19908;-53
2022/08/11 13:44:55;;;;;;;;;;;26.80;96.10;;;;;;5106126;28;19912;-50
2022/08/11 13:47:23;;;;;;;;;;;26.80;96.10;;;;;;5105922;28;19949;-52
2022/08/11 13:49:50;;;;;;;;;;;26.80;96.00;;;;;;5106418;28;19914;-52
2022/08/11 13:52:17;;;;;;;;;;;26.80;96.10;;;;;;5106443;28;19908;-51
2022/08/11 13:54:45;;;;;;;;;;;26.80;96.10;;;;;;5104038;28;19959;-48
2022/08/11 13:57:13;;;;;;;;;;;26.90;96.00;;;;;;5105421;28;19908;-49
2022/08/11 13:59:40;;;;;;;;;;;26.90;96.00;;;;;;5105888;28;19909;-48
2022/08/11 14:02:07;;;;;;;;;;;26.90;95.90;;;;;;5106565;28;19943;-51
2022/08/11 14:04:39;;;;;;;;;;;26.90;95.80;;;;;;5105861;28;19951;-55
2022/08/11 14:07:06;;;;;;;;;;;26.90;95.90;;;;;;5106353;28;19915;-54
2022/08/11 14:09:36;;;;;;;;;;;26.90;95.60;;;;;;5105758;28;20219;-56
2022/08/11 14:14:55;;;;;;;;;;;27.00;95.50;;;;;;5105649;28;19957;-52
2022/08/11 14:17:21;;;;;;;;;;;27.00;95.40;;;;;;5105076;28;19977;-51
2022/08/11 14:19:50;;;;;;;;;;;27.10;95.50;;;;;;5099896;28;19980;-51
2022/08/11 14:22:17;;;;;;;;;;;27.10;95.40;;;;;;5099734;28;19908;-50
2022/08/11 14:24:48;;;;;;;;;;;27.10;95.40;;;;;;5086460;28;19918;-48
2022/08/11 14:27:15;;;;;;;;;;;27.10;95.20;;;;;;5097543;28;19947;-48
2022/08/11 14:29:42;;;;;;;;;;;27.10;95.10;;;;;;5091298;28;19927;-54
2022/08/11 14:32:13;;;;;;;;;;;27.20;95.20;;;;;;5076905;28;19904;-52
2022/08/11 14:34:43;;;;;;;;;;;27.20;95.10;;;;;;5085192;28;19925;-46
2022/08/11 14:37:11;;;;;;;;;;;27.20;94.90;;;;;;5085391;28;19914;-52
2022/08/11 14:39:42;;;;;;;;;;;27.20;94.50;;;;;;5084736;28;20069;-49
2022/08/11 14:47:42;;;;;;;;;;;27.20;94.60;;;;;;5084882;28;19932;-52
2022/08/11 14:50:13;;;;;;;;;;;27.20;94.60;;;;;;5084185;28;19905;-50
2022/08/11 14:52:43;;;;;;;;;;;27.30;94.70;;;;;;5084611;28;19955;-54
2022/08/11 14:57:56;;;;;;;;;;;27.30;94.70;;;;;;5084774;28;20112;-51
2022/08/11 15:00:23;;;;;;;;;;;27.30;94.60;;;;;;5084558;28;19931;-51
2022/08/11 15:05:35;;;;;;;;;;;27.30;94.50;;;;;;5084506;28;19954;-52
2022/08/11 15:08:03;;;;;;;;;;;27.30;94.60;;;;;;5084473;28;20108;-51
2022/08/11 15:10:29;;;;;;;;;;;27.30;94.50;;;;;;5088691;28;20092;-46
2022/08/11 15:12:56;;;;;;;;;;;27.30;94.40;;;;;;5090578;28;19912;-53
2022/08/11 15:18:09;;;;;;;;;;;27.40;94.20;;;;;;5101045;28;20150;-49
2022/08/11 15:26:10;;;;;;;;;;;27.40;94.40;;;;;;5085547;28;20099;-49
2022/08/11 15:45:51;;;;;;;;;;;27.60;93.90;;;;;;5098670;28;20092;-47
2022/08/11 15:48:25;;;;;;;;;;;27.60;93.90;;;;;;5100197;28;19992;-47
2022/08/11 15:50:53;;;;;;;;;;;27.60;93.90;;;;;;5102989;28;19912;-50
2022/08/11 15:53:22;;;;;;;;;;;27.60;93.80;;;;;;5103643;28;19912;-46
2022/08/11 15:55:49;;;;;;;;;;;27.70;93.70;;;;;;5102514;28;19946;-47
2022/08/11 16:06:41;;;;;;;;;;;27.70;93.10;;;;;;5108513;28;20242;-50
2022/08/11 16:09:09;;;;;;;;;;;27.70;93.20;;;;;;5107614;28;19916;-53
2022/08/11 16:11:36;;;;;;;;;;;27.70;93.10;;;;;;5108260;28;19904;-51
2022/08/11 16:16:51;;;;;;;;;;;27.80;93.10;;;;;;5108398;28;19931;-53
2022/08/11 16:19:18;;;;;;;;;;;27.80;93.00;;;;;;5107789;28;19912;-48
2022/08/11 16:21:49;;;;;;;;;;;27.80;93.00;;;;;;5108095;28;19911;-54
2022/08/11 16:24:16;;;;;;;;;;;27.80;93.10;;;;;;5107303;28;19915;-48
2022/08/11 16:26:43;;;;;;;;;;;27.80;93.20;;;;;;5103120;28;19908;-47
2022/08/11 16:29:10;;;;;;;;;;;27.90;93.20;;;;;;5107087;28;19949;-46
2022/08/11 16:31:37;;;;;;;;;;;27.90;93.30;;;;;;5107021;28;19915;-48
2022/08/11 16:34:04;;;;;;;;;;;27.90;93.20;;;;;;5105225;28;19913;-52
2022/08/11 16:39:17;;;;;;;;;;;28.00;93.20;;;;;;5107224;28;19953;-47
2022/08/11 16:47:17;;;;;;;;;;;28.00;93.10;;;;;;5105632;28;19923;-52
2022/08/11 16:49:48;;;;;;;;;;;28.00;92.80;;;;;;5106798;28;19915;-48
2022/08/11 16:52:15;;;;;;;;;;;28.00;93.10;;;;;;5107368;28;19915;-51
2022/08/11 16:54:42;;;;;;;;;;;28.10;93.20;;;;;;5107019;28;19942;-51
2022/08/11 16:59:55;;;;;;;;;;;28.10;93.00;;;;;;5107312;28;20153;-49
2022/08/11 17:13:54;;;;;;;;;;;28.30;93.10;;;;;;5095151;28;19943;-51
2022/08/11 17:16:24;;;;;;;;;;;28.30;93.00;;;;;;5095792;28;19909;-47
2022/08/11 17:18:50;;;;;;;;;;;28.30;92.90;;;;;;5088422;28;19920;-48
2022/08/11 17:21:21;;;;;;;;;;;28.30;93.00;;;;;;5107116;28;20093;-50
2022/08/11 17:24:08;;;;;;;;;;;28.40;92.90;;;;;;5104909;28;19908;-49
2022/08/11 17:26:58;;;;;;;;;;;28.40;93.00;;;;;;5086025;28;19915;-48
2022/08/11 17:29:29;;;;;;;;;;;28.40;92.90;;;;;;5093733;28;19919;-51
2022/08/11 17:37:29;;;;;;;;;;;28.40;92.60;;;;;;5096986;28;19915;-50
2022/08/11 17:39:56;;;;;;;;;;;28.50;92.60;;;;;;5086114;28;19908;-46
2022/08/11 18:00:50;;;;;;;;;;;28.90;91.80;;;;;;5163414;27;19946;-60
2022/08/11 18:03:31;;;;;;;;;;;28.90;91.90;;;;;;5163584;27;19912;-60
2022/08/11 18:06:02;;;;;;;;;;;28.80;91.90;;;;;;5161940;27;19953;-62
